Terminal Aerodrome Forecast
Issued by NWS

Home | Current Version | Previous Version | Graphics & Text | Print | Product List | Glossary On
Versions: 1 2 3 4 5 6 7 8 9 10 11 12 13 14 15
000
FTUS43 KIWX 291736
TAFSBN
TAF
KSBN 291736Z 2918/3018 17006KT P6SM VCSH BKN070
      TEMPO 2920/2923 6SM -SHRA BR BKN040
     FM300800 VRB03KT 5SM BR BKN020
     FM301300 23004KT P6SM SCT040=

USA.gov is the U.S. government's official web portal to all federal, state and local government web resources and services.